Norwegian Breakaway — C6ZJ3 — position and weather

sailwx.info

Track history (hours):
 
Tides and Currents Weather Stations Pressure Air Temp Water Temp Dewpoint Dewpoint Depression Visibility Wind Speed Wind Dir Waves Ship Positions

Norwegian Breakaway

Last reported at 2018-Jun-22 07:30 UTC. Time now 2018-Jun-22 07:41 UTC.
Position N 59°40' E 023°35'.

Length 325 m; draft 8.6 m.

Type: Passenger vessel. MMSI: 311050800.

Date/timePositionNaut miles runAvg speedWind from/ knotsBaromVisibWave heightAir tempDewpointWater temp
2018-Jun-22 07:30N 59°40' E 023°35'5 9.0
2018-Jun-22 07:00N 59°41' E 023°44'5 9.2
2018-Jun-22 06:30N 59°43' E 023°52'5 9.2
2018-Jun-22 06:00N 59°44' E 024°01'4 9.0
2018-Jun-22 05:30N 59°46' E 024°09'5 9.4
2018-Jun-22 05:00N 59°47' E 024°18'5 8.9
2018-Jun-22 04:29N 59°48' E 024°27'4 9.2
2018-Jun-22 04:00N 59°50' E 024°35'5 9.1
2018-Jun-22 03:30N 59°52' E 024°43'5 9.0
2018-Jun-22 03:00N 59°54' E 024°52'4 8.4
2018-Jun-22 02:30N 59°55' E 024°59'5 9.5
2018-Jun-22 02:00N 59°56' E 025°09'815.6
2018-Jun-22 01:31N 59°55' E 025°24'815.4
2018-Jun-22 01:00N 59°55' E 025°39'816.1
2018-Jun-22 00:30N 59°57' E 025°55'917.8
2018-Jun-22 00:00N 59°59' E 026°12'1120.5
2018-Jun-21 23:29N 60°01' E 026°33'918.7
2018-Jun-21 22:59N 60°00' E 026°52'1020.3
2018-Jun-21 22:30N 60°02' E 027°11'919.2
2018-Jun-21 22:00N 60°07' E 027°27'1020.4
2018-Jun-21 21:30N 60°12' E 027°45'1020.4
2018-Jun-21 21:00N 60°10' E 028°05'1020.0
2018-Jun-21 20:30N 60°06' E 028°23'917.9
2018-Jun-21 20:00N 60°03' E 028°40'916.9
2018-Jun-21 19:30N 60°03' E 028°57'816.5
2018-Jun-21 19:00N 60°02' E 029°14'1612.0
2018-Jun-21 17:40N 59°59' E 029°45'1 9.0
2018-Jun-21 17:30N 59°58' E 029°48'510.4
2018-Jun-21 17:00N 59°56' E 029°57'5 9.1
2018-Jun-21 16:30N 59°57' E 030°06'2 4.8
2018-Jun-21 16:00N 59°57' E 030°11'0 0.2
2018-Jun-21 15:30N 59°57' E 030°11'0 0.0
2018-Jun-21 14:57N 59°57' E 030°11'0 0.0
2018-Jun-21 14:30N 59°57' E 030°11'0 0.0
2018-Jun-21 13:58N 59°57' E 030°11'0 0.0
2018-Jun-21 13:29N 59°57' E 030°11'0 0.0
2018-Jun-21 13:00N 59°57' E 030°11'0 0.0
2018-Jun-21 12:31N 59°57' E 030°11'0 0.0
2018-Jun-21 11:59N 59°57' E 030°11'0 0.0
2018-Jun-21 11:26N 59°57' E 030°11'0 0.0
2018-Jun-21 10:58N 59°57' E 030°11'0 0.0
2018-Jun-21 10:28N 59°57' E 030°11'0 0.0
2018-Jun-21 09:55N 59°57' E 030°11'0 0.0
2018-Jun-21 09:27N 59°57' E 030°11'0 0.0
2018-Jun-21 09:00N 59°57' E 030°11'0 0.0
2018-Jun-21 08:29N 59°57' E 030°11'0 0.0
2018-Jun-21 07:55N 59°57' E 030°11'0 0.0
2018-Jun-21 07:12N 59°57' E 030°11'0 0.0
2018-Jun-21 06:54N 59°57' E 030°11'0 0.0
2018-Jun-21 06:29N 59°57' E 030°11'0 0.0
2018-Jun-21 06:00N 59°57' E 030°11'0 0.0
2018-Jun-21 05:30N 59°57' E 030°11'0 0.0
2018-Jun-21 05:00N 59°57' E 030°11'0 0.0
2018-Jun-21 04:30N 59°57' E 030°11'0 0.0
2018-Jun-21 03:59N 59°57' E 030°11'0 0.0
2018-Jun-21 03:30N 59°57' E 030°11'0 0.0
2018-Jun-21 02:59N 59°57' E 030°11'0 0.0
2018-Jun-21 02:30N 59°57' E 030°11'0 0.0
2018-Jun-21 01:53N 59°57' E 030°11'0 0.0
2018-Jun-21 01:30N 59°57' E 030°11'0 0.0
2018-Jun-21 00:59N 59°57' E 030°11'0 0.0
2018-Jun-21 00:27N 59°57' E 030°11'0 0.0
2018-Jun-20 23:59N 59°57' E 030°11'0 0.0
2018-Jun-20 23:28N 59°57' E 030°11'0 0.0
2018-Jun-20 23:01N 59°57' E 030°11'0 0.0
2018-Jun-20 22:27N 59°57' E 030°11'0 0.0
2018-Jun-20 22:00N 59°57' E 030°11'0 0.0
2018-Jun-20 21:30N 59°57' E 030°11'0 0.0
2018-Jun-20 21:00N 59°57' E 030°11'0 0.0
2018-Jun-20 20:29N 59°57' E 030°11'0 0.0
2018-Jun-20 19:58N 59°57' E 030°11'0 0.0
2018-Jun-20 19:30N 59°57' E 030°11'0 0.0
2018-Jun-20 18:58N 59°57' E 030°11'0 0.0
2018-Jun-20 18:28N 59°57' E 030°11'0 0.0
2018-Jun-20 17:57N 59°57' E 030°11'0 0.0
2018-Jun-20 17:30N 59°57' E 030°11'0 0.0
2018-Jun-20 17:00N 59°57' E 030°11'0 0.0
2018-Jun-20 16:26N 59°57' E 030°11'0 0.0
2018-Jun-20 15:55N 59°57' E 030°11'0 0.0
2018-Jun-20 15:30N 59°57' E 030°11'0 0.0
2018-Jun-20 14:59N 59°57' E 030°11'0 0.0
2018-Jun-20 14:27N 59°57' E 030°11'0 0.0
2018-Jun-20 14:00N 59°57' E 030°11'0 0.0
2018-Jun-20 13:29N 59°57' E 030°11'0 0.0
2018-Jun-20 12:59N 59°57' E 030°11'0 0.0
2018-Jun-20 12:30N 59°57' E 030°11'0 0.0
2018-Jun-20 11:55N 59°57' E 030°11'0 0.0
2018-Jun-20 11:28N 59°57' E 030°11'0 0.0
2018-Jun-20 10:59N 59°57' E 030°11'0 0.0
2018-Jun-20 10:28N 59°57' E 030°11'0 0.0
2018-Jun-20 09:58N 59°57' E 030°11'0 0.0
2018-Jun-20 09:30N 59°57' E 030°11'0 0.0
2018-Jun-20 08:59N 59°57' E 030°11'0 0.0
2018-Jun-20 08:28N 59°57' E 030°11'0 0.0
2018-Jun-20 07:56N 59°57' E 030°11'0 0.0
2018-Jun-20 07:30N 59°57' E 030°11'0 0.0
2018-Jun-20 06:50N 59°57' E 030°11'0 0.0
2018-Jun-20 06:24N 59°57' E 030°11'0 0.0
2018-Jun-20 05:58N 59°57' E 030°11'0 0.0
2018-Jun-20 05:31N 59°57' E 030°11'0 0.0
2018-Jun-20 04:52N 59°57' E 030°11'0 0.0
2018-Jun-20 04:28N 59°57' E 030°11'0 0.0
2018-Jun-20 04:00N 59°57' E 030°11'0 0.0
2018-Jun-20 03:30N 59°57' E 030°11'2 3.5
2018-Jun-20 03:00N 59°57' E 030°07'5 9.3
2018-Jun-20 02:30N 59°56' E 029°58'611.7
2018-Jun-20 02:00N 59°58' E 029°48'510.4
2018-Jun-20 01:30N 60°00' E 029°38'510.6
2018-Jun-20 01:00N 60°01' E 029°28'610.9
2018-Jun-20 00:28N 60°01' E 029°16'714.7
2018-Jun-20 00:00N 60°02' E 029°03'713.1
2018-Jun-19 23:30N 60°02' E 028°50'714.8
2018-Jun-19 23:00N 60°02' E 028°35'714.6
2018-Jun-19 22:30N 60°05' E 028°21'815.2
2018-Jun-19 22:00N 60°08' E 028°08'815.5
2018-Jun-19 21:30N 60°10' E 027°52'714.6
2018-Jun-19 21:00N 60°09' E 027°38'815.2
2018-Jun-19 20:30N 60°05' E 027°25'815.4
2018-Jun-19 20:00N 60°01' E 027°12'714.8
2018-Jun-19 19:30N 59°58' E 026°58'714.9
2018-Jun-19 19:01N 59°60' E 026°43'713.9
2018-Jun-19 18:31N 59°58' E 026°30'815.4
2018-Jun-19 17:59N 59°56' E 026°14'1914.1
2018-Jun-19 16:38N 59°50' E 025°38'614.3
2018-Jun-19 16:13N 59°49' E 025°27'314.9
2018-Jun-19 16:01N 59°48' E 025°21'714.9
2018-Jun-19 15:30N 59°46' E 025°07'714.9
2018-Jun-19 15:00N 59°43' E 024°53'714.7
2018-Jun-19 14:30N 59°38' E 024°42'815.8
2018-Jun-19 14:00N 59°30' E 024°45'3 3.3
2018-Jun-19 13:04N 59°27' E 024°46'0 0.0
2018-Jun-19 13:00N 59°27' E 024°46'0 0.0
2018-Jun-19 12:22N 59°27' E 024°46'0 0.0
2018-Jun-19 11:57N 59°27' E 024°46'0 0.0
2018-Jun-19 11:29N 59°27' E 024°46'0 0.0
2018-Jun-19 10:58N 59°27' E 024°46'0 0.0
2018-Jun-19 10:20N 59°27' E 024°46'0 0.0
2018-Jun-19 09:57N 59°27' E 024°46'0 0.0
2018-Jun-19 09:29N 59°27' E 024°46'0 0.0
2018-Jun-19 09:00N 59°27' E 024°46'0 0.0
2018-Jun-19 08:29N 59°27' E 024°46'0 0.0
2018-Jun-19 07:58N 59°27' E 024°46'0 0.0
2018-Jun-19 07:30N 59°27' E 024°46'0 0.0
2018-Jun-19 07:00N 59°27' E 024°46'0 0.0
2018-Jun-19 06:29N 59°27' E 024°46'0 0.0
2018-Jun-19 06:01N 59°27' E 024°46'0 0.3
2018-Jun-19 05:30N 59°27' E 024°46'2 3.9
2018-Jun-19 05:01N 59°29' E 024°45'917.0
2018-Jun-19 04:30N 59°37' E 024°38'815.2
2018-Jun-19 04:01N 59°39' E 024°24'816.3
2018-Jun-19 03:30N 59°38' E 024°08'816.8
2018-Jun-19 03:00N 59°36' E 023°52'817.0
2018-Jun-19 02:30N 59°34' E 023°36'816.4
2018-Jun-19 02:00N 59°32' E 023°20'816.2
2018-Jun-19 01:30N 59°30' E 023°05'816.3
2018-Jun-19 01:00N 59°27' E 022°50'816.4
2018-Jun-19 00:30N 59°24' E 022°35'917.0
2018-Jun-19 00:00N 59°20' E 022°20'816.7
2018-Jun-18 23:30N 59°15' E 022°07'816.6
2018-Jun-18 23:00N 59°10' E 021°54'917.0
2018-Jun-18 22:30N 59°04' E 021°42'816.6
2018-Jun-18 22:00N 58°57' E 021°32'816.5
2018-Jun-18 21:30N 58°51' E 021°23'816.8
2018-Jun-18 21:00N 58°43' E 021°15'26516.5
2018-Jun-18 04:58N 55°36' E 015°29'817.6
2018-Jun-18 04:30N 55°33' E 015°16'1020.1
2018-Jun-18 04:00N 55°29' E 014°59'1121.0
2018-Jun-18 03:29N 55°24' E 014°42'1020.7
2018-Jun-18 03:00N 55°17' E 014°30'1020.7
2018-Jun-18 02:30N 55°09' E 014°18'1020.7
2018-Jun-18 02:00N 55°02' E 014°06'2121.0
2018-Jun-18 01:01N 54°54' E 013°33'2920.3
2018-Jun-17 23:37N 54°45' E 012°46'618.2
2018-Jun-17 23:18N 54°43' E 012°37'817.3
2018-Jun-17 22:51N 54°39' E 012°25'616.5
2018-Jun-17 22:28N 54°34' E 012°19'817.3
2018-Jun-17 22:00N 54°26' E 012°13'917.7
2018-Jun-17 21:31N 54°19' E 012°04'713.8
2018-Jun-17 21:00N 54°12' E 012°05'3 6.2
2018-Jun-17 20:30N 54°10' E 012°06'1 0.0
2018-Jun-17 04:47N 54°09' E 012°07'0 0.0
2018-Jun-17 04:19N 54°09' E 012°07'0 1.0
2018-Jun-17 03:59N 54°09' E 012°07'4 8.6
2018-Jun-17 03:30N 54°13' E 012°04'813.2
2018-Jun-17 02:55N 54°19' E 011°55'819.1
2018-Jun-17 02:30N 54°23' E 011°44'1020.9
2018-Jun-17 02:01N 54°29' E 011°29'1019.1
2018-Jun-17 01:31N 54°33' E 011°15'917.2
2018-Jun-17 01:01N 54°38' E 011°02'816.8
2018-Jun-17 00:31N 54°44' E 010°51'815.9
2018-Jun-17 00:01N 54°52' E 010°52'815.7
2018-Jun-16 23:31N 54°58' E 010°59'917.9
2018-Jun-16 23:01N 55°07' E 011°02'917.0
2018-Jun-16 22:30N 55°15' E 011°05'918.5
2018-Jun-16 22:01N 55°24' E 010°60'6614.1
2018-Jun-16 17:20N 56°12' E 012°20'619.4
2018-Jun-16 17:00N 56°09' E 012°29'1019.2
2018-Jun-16 16:30N 56°02' E 012°40'918.1
2018-Jun-16 16:00N 55°53' E 012°44'815.6
2018-Jun-16 15:30N 55°45' E 012°41'3 6.4
2018-Jun-16 15:00N 55°43' E 012°37'0 0.1
2018-Jun-16 14:30N 55°43' E 012°37'0 0.0
2018-Jun-16 13:58N 55°43' E 012°37'0 0.0
2018-Jun-16 13:30N 55°43' E 012°37'0 0.0
2018-Jun-16 13:00N 55°43' E 012°37'0 0.0
2018-Jun-16 12:29N 55°43' E 012°37'0 0.0
2018-Jun-16 11:56N 55°43' E 012°37'0 0.0
2018-Jun-16 11:30N 55°43' E 012°37'0 0.0
2018-Jun-16 10:58N 55°43' E 012°37'0 0.0
2018-Jun-16 10:30N 55°43' E 012°37'0 0.0
2018-Jun-16 10:00N 55°43' E 012°37'0 0.0
2018-Jun-16 09:31N 55°43' E 012°37'0 0.0
2018-Jun-16 08:58N 55°43' E 012°37'0 0.0
2018-Jun-16 08:28N 55°43' E 012°37'0 0.0
2018-Jun-16 07:58N 55°43' E 012°37'0 0.0
2018-Jun-16 07:30N 55°43' E 012°37'0 0.0
2018-Jun-16 06:59N 55°43' E 012°37'0 0.0
2018-Jun-16 06:28N 55°43' E 012°37'0 0.0
2018-Jun-16 06:00N 55°43' E 012°37'0 0.0
2018-Jun-16 05:29N 55°43' E 012°37'0 0.0
2018-Jun-16 04:59N 55°43' E 012°37'0 0.0
2018-Jun-16 04:29N 55°43' E 012°37'0 0.0
2018-Jun-16 03:58N 55°43' E 012°37'1 1.5
2018-Jun-16 03:30N 55°43' E 012°38'510.3
2018-Jun-16 03:00N 55°48' E 012°42'612.1
2018-Jun-16 02:30N 55°54' E 012°39'714.6
2018-Jun-16 02:00N 56°01' E 012°40'713.3
2018-Jun-16 01:31N 56°06' E 012°33'815.3
2018-Jun-16 01:00N 56°10' E 012°21'6812.1
2018-Jun-15 19:21N 55°18' E 011°03'617.5
2018-Jun-15 19:00N 55°12' E 011°06'917.5
2018-Jun-15 18:30N 55°04' E 011°02'817.0
2018-Jun-15 18:01N 54°56' E 010°57'816.0
2018-Jun-15 17:31N 54°48' E 010°52'815.1
2018-Jun-15 17:01N 54°41' E 010°57'917.9
2018-Jun-15 16:31N 54°37' E 011°10'918.1
2018-Jun-15 16:01N 54°33' E 011°24'918.5
2018-Jun-15 15:31N 54°29' E 011°38'918.4
2018-Jun-15 15:01N 54°26' E 011°53'918.2
2018-Jun-15 14:30N 54°26' E 012°09'7217.6
2018-Jun-15 10:26N 55°03' E 013°55'1018.8
2018-Jun-15 09:53N 55°09' E 014°11'820.1
2018-Jun-15 09:31N 55°15' E 014°19'1019.9
2018-Jun-15 09:00N 55°23' E 014°30'1019.9
2018-Jun-15 08:31N 55°29' E 014°44'1120.3
2018-Jun-15 07:57N 55°34' E 015°01'1120.2
2018-Jun-15 07:24N 55°39' E 015°18'17818.3
2018-Jun-14 21:42N 58°17' E 017°47'419.7
2018-Jun-14 21:30N 58°21' E 017°48'1019.5
2018-Jun-14 21:01N 58°31' E 017°50'1019.1
2018-Jun-14 20:30N 58°40' E 017°53'611.5
2018-Jun-14 20:01N 58°46' E 017°55'917.5
2018-Jun-14 19:30N 58°54' E 018°00'1 2.4
2018-Jun-14 19:00N 58°55' E 017°58'0 0.0
2018-Jun-14 18:29N 58°55' E 017°58'0 0.0
2018-Jun-14 17:59N 58°55' E 017°58'0 0.0
2018-Jun-14 17:29N 58°55' E 017°58'0 0.0
2018-Jun-14 16:59N 58°55' E 017°58'0 0.0
2018-Jun-14 16:29N 58°55' E 017°58'0 0.0
2018-Jun-14 15:58N 58°55' E 017°58'0 0.0
2018-Jun-14 15:28N 58°55' E 017°58'0 0.0
2018-Jun-14 14:58N 58°55' E 017°58'0 0.0
2018-Jun-14 14:30N 58°55' E 017°58'0 0.0
2018-Jun-14 14:00N 58°55' E 017°58'0 0.0
2018-Jun-14 13:30N 58°55' E 017°58'0 0.0
2018-Jun-14 13:00N 58°55' E 017°58'0 0.0
2018-Jun-14 12:30N 58°55' E 017°58'0 0.0
2018-Jun-14 12:00N 58°55' E 017°58'0 0.0
2018-Jun-14 11:30N 58°55' E 017°58'0 0.0
2018-Jun-14 11:00N 58°55' E 017°58'0 0.0
2018-Jun-14 10:30N 58°55' E 017°58'0 0.0
2018-Jun-14 10:00N 58°55' E 017°58'0 0.0
2018-Jun-14 09:30N 58°55' E 017°58'0 0.0
2018-Jun-14 09:00N 58°55' E 017°58'0 0.0
2018-Jun-14 08:30N 58°55' E 017°58'0 0.0
2018-Jun-14 08:00N 58°55' E 017°58'0 0.0
2018-Jun-14 07:31N 58°55' E 017°58'0 0.0
2018-Jun-14 06:58N 58°55' E 017°58'0 0.0
2018-Jun-14 06:27N 58°55' E 017°58'0 0.0
2018-Jun-14 05:59N 58°55' E 017°58'0 0.0
2018-Jun-14 05:29N 58°55' E 017°58'0 0.0
2018-Jun-14 04:59N 58°55' E 017°58'0 0.0
2018-Jun-14 04:29N 58°55' E 017°58'0 0.1
2018-Jun-14 04:00N 58°55' E 017°58'3 6.9
2018-Jun-14 03:30N 58°52' E 018°03'815.1
2018-Jun-14 03:00N 58°45' E 018°09'816.2
2018-Jun-14 02:30N 58°45' E 018°25'816.2
2018-Jun-14 02:00N 58°47' E 018°40'1915.6
2018-Jun-14 00:48N 58°53' E 019°14'516.5
2018-Jun-14 00:28N 58°55' E 019°24'816.4
2018-Jun-13 23:58N 58°59' E 019°39'1016.0
2018-Jun-13 23:19N 59°03' E 019°57'616.6
2018-Jun-13 22:58N 59°05' E 020°07'816.4
2018-Jun-13 22:29N 59°08' E 020°21'916.3
2018-Jun-13 21:56N 59°12' E 020°37'716.6
2018-Jun-13 21:30N 59°15' E 020°50'817.1
2018-Jun-13 21:00N 59°18' E 021°06'917.3
2018-Jun-13 20:30N 59°20' E 021°22'917.1
2018-Jun-13 20:00N 59°22' E 021°38'917.2
2018-Jun-13 19:30N 59°24' E 021°55'816.9
2018-Jun-13 19:00N 59°26' E 022°11'1116.7
2018-Jun-13 18:22N 59°31' E 022°29'616.6
2018-Jun-13 18:00N 59°33' E 022°40'816.3
2018-Jun-13 17:30N 59°35' E 022°56'1019.5
2018-Jun-13 17:00N 59°37' E 023°15'1020.0
2018-Jun-13 16:30N 59°39' E 023°34'1020.1
2018-Jun-13 16:00N 59°42' E 023°53'1020.1
2018-Jun-13 15:30N 59°46' E 024°12'1019.7
2018-Jun-13 15:00N 59°50' E 024°30'1020.0
2018-Jun-13 14:30N 59°56' E 024°45'714.7
2018-Jun-13 14:00N 60°02' E 024°55'713.6
2018-Jun-13 13:30N 60°08' E 024°54'1 1.4
2018-Jun-13 12:59N 60°09' E 024°55'0 0.0
2018-Jun-13 12:30N 60°09' E 024°55'0 0.0
2018-Jun-13 11:59N 60°09' E 024°55'0 0.0
2018-Jun-13 11:29N 60°09' E 024°55'0 0.0
2018-Jun-13 10:59N 60°09' E 024°55'0 0.0
2018-Jun-13 10:29N 60°09' E 024°55'0 0.0
2018-Jun-13 09:58N 60°09' E 024°55'0 0.0
2018-Jun-13 09:28N 60°09' E 024°55'0 0.0
2018-Jun-13 09:00N 60°09' E 024°55'0 0.0
2018-Jun-13 08:30N 60°09' E 024°55'0 0.0
2018-Jun-13 08:00N 60°09' E 024°55'0 0.0
2018-Jun-13 07:30N 60°09' E 024°55'0 0.0
2018-Jun-13 07:00N 60°09' E 024°55'0 0.0
2018-Jun-13 06:29N 60°09' E 024°55'0 0.0
2018-Jun-13 06:00N 60°09' E 024°55'0 0.0
2018-Jun-13 05:25N 60°09' E 024°55'0 0.0
2018-Jun-13 05:00N 60°09' E 024°55'0 0.0
2018-Jun-13 04:30N 60°09' E 024°55'0 0.0
2018-Jun-13 03:58N 60°09' E 024°55'0 0.1
2018-Jun-13 03:30N 60°09' E 024°55'3 5.2
2018-Jun-13 03:00N 60°07' E 024°54'713.4
2018-Jun-13 02:30N 59°60' E 024°57'612.6
2018-Jun-13 02:00N 59°57' E 025°09'816.0
2018-Jun-13 01:30N 59°55' E 025°24'815.8
2018-Jun-13 01:00N 59°55' E 025°40'816.1
2018-Jun-13 00:30N 59°57' E 025°55'917.1
2018-Jun-12 23:58N 59°59' E 026°13'716.1
2018-Jun-12 23:31N 60°01' E 026°27'918.4
2018-Jun-12 23:00N 60°01' E 026°46'1019.7
2018-Jun-12 22:30N 59°60' E 027°05'1020.4
2018-Jun-12 22:00N 60°06' E 027°22'1120.8
2018-Jun-12 21:30N 60°11' E 027°40'1019.6
2018-Jun-12 21:00N 60°11' E 027°60'1019.9
2018-Jun-12 20:30N 60°07' E 028°19'1019.1
2018-Jun-12 20:00N 60°03' E 028°36'919.0
2018-Jun-12 19:30N 60°03' E 028°55'1019.8
2018-Jun-12 19:00N 60°02' E 029°15'1612.8
2018-Jun-12 17:46N 59°59' E 029°46'3 9.5
2018-Jun-12 17:27N 59°57' E 029°51'510.6
2018-Jun-12 16:57N 59°55' E 030°01'4 9.6
2018-Jun-12 16:30N 59°57' E 030°08'1 0.7
2018-Jun-12 14:41N 59°57' E 030°11'0 0.0
2018-Jun-12 14:21N 59°57' E 030°11'0 0.0
2018-Jun-12 13:55N 59°57' E 030°11'0 0.0
2018-Jun-12 13:30N 59°57' E 030°11'0 0.0
2018-Jun-12 10:04N 59°57' E 030°11'0 0.0
2018-Jun-12 09:48N 59°57' E 030°11'0 0.0
2018-Jun-12 09:24N 59°57' E 030°11'0 0.0
2018-Jun-12 08:10N 59°57' E 030°11'  
Track history (hours):
 
Tides and Currents Weather Stations Pressure Air Temp Water Temp Dewpoint Dewpoint Depression Visibility Wind Speed Wind Dir Waves Ship Positions

Norwegian Breakaway

Last reported at 2018-Jun-22 07:30 UTC. Time now 2018-Jun-22 07:41 UTC.
Position N 59°40' E 023°35'.

Length 325 m; draft 8.6 m.

Type: Passenger vessel. MMSI: 311050800.

Date/timePositionNaut miles runAvg speedWind from/ knotsBaromVisibWave heightAir tempDewpointWater temp
2018-Jun-22 07:30N 59°40' E 023°35'5 9.0
2018-Jun-22 07:00N 59°41' E 023°44'5 9.2
2018-Jun-22 06:30N 59°43' E 023°52'5 9.2
2018-Jun-22 06:00N 59°44' E 024°01'4 9.0
2018-Jun-22 05:30N 59°46' E 024°09'5 9.4
2018-Jun-22 05:00N 59°47' E 024°18'5 8.9
2018-Jun-22 04:29N 59°48' E 024°27'4 9.2
2018-Jun-22 04:00N 59°50' E 024°35'5 9.1
2018-Jun-22 03:30N 59°52' E 024°43'5 9.0
2018-Jun-22 03:00N 59°54' E 024°52'4 8.4
2018-Jun-22 02:30N 59°55' E 024°59'5 9.5
2018-Jun-22 02:00N 59°56' E 025°09'815.6
2018-Jun-22 01:31N 59°55' E 025°24'815.4
2018-Jun-22 01:00N 59°55' E 025°39'816.1
2018-Jun-22 00:30N 59°57' E 025°55'917.8
2018-Jun-22 00:00N 59°59' E 026°12'1120.5
2018-Jun-21 23:29N 60°01' E 026°33'918.7
2018-Jun-21 22:59N 60°00' E 026°52'1020.3
2018-Jun-21 22:30N 60°02' E 027°11'919.2
2018-Jun-21 22:00N 60°07' E 027°27'1020.4
2018-Jun-21 21:30N 60°12' E 027°45'1020.4
2018-Jun-21 21:00N 60°10' E 028°05'1020.0
2018-Jun-21 20:30N 60°06' E 028°23'917.9
2018-Jun-21 20:00N 60°03' E 028°40'916.9
2018-Jun-21 19:30N 60°03' E 028°57'816.5
2018-Jun-21 19:00N 60°02' E 029°14'1612.0
2018-Jun-21 17:40N 59°59' E 029°45'1 9.0
2018-Jun-21 17:30N 59°58' E 029°48'510.4
2018-Jun-21 17:00N 59°56' E 029°57'5 9.1
2018-Jun-21 16:30N 59°57' E 030°06'2 4.8
2018-Jun-21 16:00N 59°57' E 030°11'0 0.2
2018-Jun-21 15:30N 59°57' E 030°11'0 0.0
2018-Jun-21 14:57N 59°57' E 030°11'0 0.0
2018-Jun-21 14:30N 59°57' E 030°11'0 0.0
2018-Jun-21 13:58N 59°57' E 030°11'0 0.0
2018-Jun-21 13:29N 59°57' E 030°11'0 0.0
2018-Jun-21 13:00N 59°57' E 030°11'0 0.0
2018-Jun-21 12:31N 59°57' E 030°11'0 0.0
2018-Jun-21 11:59N 59°57' E 030°11'0 0.0
2018-Jun-21 11:26N 59°57' E 030°11'0 0.0
2018-Jun-21 10:58N 59°57' E 030°11'0 0.0
2018-Jun-21 10:28N 59°57' E 030°11'0 0.0
2018-Jun-21 09:55N 59°57' E 030°11'0 0.0
2018-Jun-21 09:27N 59°57' E 030°11'0 0.0
2018-Jun-21 09:00N 59°57' E 030°11'0 0.0
2018-Jun-21 08:29N 59°57' E 030°11'0 0.0
2018-Jun-21 07:55N 59°57' E 030°11'0 0.0
2018-Jun-21 07:12N 59°57' E 030°11'0 0.0
2018-Jun-21 06:54N 59°57' E 030°11'0 0.0
2018-Jun-21 06:29N 59°57' E 030°11'0 0.0
2018-Jun-21 06:00N 59°57' E 030°11'0 0.0
2018-Jun-21 05:30N 59°57' E 030°11'0 0.0
2018-Jun-21 05:00N 59°57' E 030°11'0 0.0
2018-Jun-21 04:30N 59°57' E 030°11'0 0.0
2018-Jun-21 03:59N 59°57' E 030°11'0 0.0
2018-Jun-21 03:30N 59°57' E 030°11'0 0.0
2018-Jun-21 02:59N 59°57' E 030°11'0 0.0
2018-Jun-21 02:30N 59°57' E 030°11'0 0.0
2018-Jun-21 01:53N 59°57' E 030°11'0 0.0
2018-Jun-21 01:30N 59°57' E 030°11'0 0.0
2018-Jun-21 00:59N 59°57' E 030°11'0 0.0
2018-Jun-21 00:27N 59°57' E 030°11'0 0.0
2018-Jun-20 23:59N 59°57' E 030°11'0 0.0
2018-Jun-20 23:28N 59°57' E 030°11'0 0.0
2018-Jun-20 23:01N 59°57' E 030°11'0 0.0
2018-Jun-20 22:27N 59°57' E 030°11'0 0.0
2018-Jun-20 22:00N 59°57' E 030°11'0 0.0
2018-Jun-20 21:30N 59°57' E 030°11'0 0.0
2018-Jun-20 21:00N 59°57' E 030°11'0 0.0
2018-Jun-20 20:29N 59°57' E 030°11'0 0.0
2018-Jun-20 19:58N 59°57' E 030°11'0 0.0
2018-Jun-20 19:30N 59°57' E 030°11'0 0.0
2018-Jun-20 18:58N 59°57' E 030°11'0 0.0
2018-Jun-20 18:28N 59°57' E 030°11'0 0.0
2018-Jun-20 17:57N 59°57' E 030°11'0 0.0
2018-Jun-20 17:30N 59°57' E 030°11'0 0.0
2018-Jun-20 17:00N 59°57' E 030°11'0 0.0
2018-Jun-20 16:26N 59°57' E 030°11'0 0.0
2018-Jun-20 15:55N 59°57' E 030°11'0 0.0
2018-Jun-20 15:30N 59°57' E 030°11'0 0.0
2018-Jun-20 14:59N 59°57' E 030°11'0 0.0
2018-Jun-20 14:27N 59°57' E 030°11'0 0.0
2018-Jun-20 14:00N 59°57' E 030°11'0 0.0
2018-Jun-20 13:29N 59°57' E 030°11'0 0.0
2018-Jun-20 12:59N 59°57' E 030°11'0 0.0
2018-Jun-20 12:30N 59°57' E 030°11'0 0.0
2018-Jun-20 11:55N 59°57' E 030°11'0 0.0
2018-Jun-20 11:28N 59°57' E 030°11'0 0.0
2018-Jun-20 10:59N 59°57' E 030°11'0 0.0
2018-Jun-20 10:28N 59°57' E 030°11'0 0.0
2018-Jun-20 09:58N 59°57' E 030°11'0 0.0
2018-Jun-20 09:30N 59°57' E 030°11'0 0.0
2018-Jun-20 08:59N 59°57' E 030°11'0 0.0
2018-Jun-20 08:28N 59°57' E 030°11'0 0.0
2018-Jun-20 07:56N 59°57' E 030°11'0 0.0
2018-Jun-20 07:30N 59°57' E 030°11'0 0.0
2018-Jun-20 06:50N 59°57' E 030°11'0 0.0
2018-Jun-20 06:24N 59°57' E 030°11'0 0.0
2018-Jun-20 05:58N 59°57' E 030°11'0 0.0
2018-Jun-20 05:31N 59°57' E 030°11'0 0.0
2018-Jun-20 04:52N 59°57' E 030°11'0 0.0
2018-Jun-20 04:28N 59°57' E 030°11'0 0.0
2018-Jun-20 04:00N 59°57' E 030°11'0 0.0
2018-Jun-20 03:30N 59°57' E 030°11'2 3.5
2018-Jun-20 03:00N 59°57' E 030°07'5 9.3
2018-Jun-20 02:30N 59°56' E 029°58'611.7
2018-Jun-20 02:00N 59°58' E 029°48'510.4
2018-Jun-20 01:30N 60°00' E 029°38'510.6
2018-Jun-20 01:00N 60°01' E 029°28'610.9
2018-Jun-20 00:28N 60°01' E 029°16'714.7
2018-Jun-20 00:00N 60°02' E 029°03'713.1
2018-Jun-19 23:30N 60°02' E 028°50'714.8
2018-Jun-19 23:00N 60°02' E 028°35'714.6
2018-Jun-19 22:30N 60°05' E 028°21'815.2
2018-Jun-19 22:00N 60°08' E 028°08'815.5
2018-Jun-19 21:30N 60°10' E 027°52'714.6
2018-Jun-19 21:00N 60°09' E 027°38'815.2
2018-Jun-19 20:30N 60°05' E 027°25'815.4
2018-Jun-19 20:00N 60°01' E 027°12'714.8
2018-Jun-19 19:30N 59°58' E 026°58'714.9
2018-Jun-19 19:01N 59°60' E 026°43'713.9
2018-Jun-19 18:31N 59°58' E 026°30'815.4
2018-Jun-19 17:59N 59°56' E 026°14'1914.1
2018-Jun-19 16:38N 59°50' E 025°38'614.3
2018-Jun-19 16:13N 59°49' E 025°27'314.9
2018-Jun-19 16:01N 59°48' E 025°21'714.9
2018-Jun-19 15:30N 59°46' E 025°07'714.9
2018-Jun-19 15:00N 59°43' E 024°53'714.7
2018-Jun-19 14:30N 59°38' E 024°42'815.8
2018-Jun-19 14:00N 59°30' E 024°45'3 3.3
2018-Jun-19 13:04N 59°27' E 024°46'0 0.0
2018-Jun-19 13:00N 59°27' E 024°46'0 0.0
2018-Jun-19 12:22N 59°27' E 024°46'0 0.0
2018-Jun-19 11:57N 59°27' E 024°46'0 0.0
2018-Jun-19 11:29N 59°27' E 024°46'0 0.0
2018-Jun-19 10:58N 59°27' E 024°46'0 0.0
2018-Jun-19 10:20N 59°27' E 024°46'0 0.0
2018-Jun-19 09:57N 59°27' E 024°46'0 0.0
2018-Jun-19 09:29N 59°27' E 024°46'0 0.0
2018-Jun-19 09:00N 59°27' E 024°46'0 0.0
2018-Jun-19 08:29N 59°27' E 024°46'0 0.0
2018-Jun-19 07:58N 59°27' E 024°46'0 0.0
2018-Jun-19 07:30N 59°27' E 024°46'0 0.0
2018-Jun-19 07:00N 59°27' E 024°46'0 0.0
2018-Jun-19 06:29N 59°27' E 024°46'0 0.0
2018-Jun-19 06:01N 59°27' E 024°46'0 0.3
2018-Jun-19 05:30N 59°27' E 024°46'2 3.9
2018-Jun-19 05:01N 59°29' E 024°45'917.0
2018-Jun-19 04:30N 59°37' E 024°38'815.2
2018-Jun-19 04:01N 59°39' E 024°24'816.3
2018-Jun-19 03:30N 59°38' E 024°08'816.8
2018-Jun-19 03:00N 59°36' E 023°52'817.0
2018-Jun-19 02:30N 59°34' E 023°36'816.4
2018-Jun-19 02:00N 59°32' E 023°20'816.2
2018-Jun-19 01:30N 59°30' E 023°05'816.3
2018-Jun-19 01:00N 59°27' E 022°50'816.4
2018-Jun-19 00:30N 59°24' E 022°35'917.0
2018-Jun-19 00:00N 59°20' E 022°20'816.7
2018-Jun-18 23:30N 59°15' E 022°07'816.6
2018-Jun-18 23:00N 59°10' E 021°54'917.0
2018-Jun-18 22:30N 59°04' E 021°42'816.6
2018-Jun-18 22:00N 58°57' E 021°32'816.5
2018-Jun-18 21:30N 58°51' E 021°23'816.8
2018-Jun-18 21:00N 58°43' E 021°15'26516.5
2018-Jun-18 04:58N 55°36' E 015°29'817.6
2018-Jun-18 04:30N 55°33' E 015°16'1020.1
2018-Jun-18 04:00N 55°29' E 014°59'1121.0
2018-Jun-18 03:29N 55°24' E 014°42'1020.7
2018-Jun-18 03:00N 55°17' E 014°30'1020.7
2018-Jun-18 02:30N 55°09' E 014°18'1020.7
2018-Jun-18 02:00N 55°02' E 014°06'2121.0
2018-Jun-18 01:01N 54°54' E 013°33'2920.3
2018-Jun-17 23:37N 54°45' E 012°46'618.2
2018-Jun-17 23:18N 54°43' E 012°37'817.3
2018-Jun-17 22:51N 54°39' E 012°25'616.5
2018-Jun-17 22:28N 54°34' E 012°19'817.3
2018-Jun-17 22:00N 54°26' E 012°13'917.7
2018-Jun-17 21:31N 54°19' E 012°04'713.8
2018-Jun-17 21:00N 54°12' E 012°05'3 6.2
2018-Jun-17 20:30N 54°10' E 012°06'1 0.0
2018-Jun-17 04:47N 54°09' E 012°07'0 0.0
2018-Jun-17 04:19N 54°09' E 012°07'0 1.0
2018-Jun-17 03:59N 54°09' E 012°07'4 8.6
2018-Jun-17 03:30N 54°13' E 012°04'813.2
2018-Jun-17 02:55N 54°19' E 011°55'819.1
2018-Jun-17 02:30N 54°23' E 011°44'1020.9
2018-Jun-17 02:01N 54°29' E 011°29'1019.1
2018-Jun-17 01:31N 54°33' E 011°15'917.2
2018-Jun-17 01:01N 54°38' E 011°02'816.8
2018-Jun-17 00:31N 54°44' E 010°51'815.9
2018-Jun-17 00:01N 54°52' E 010°52'815.7
2018-Jun-16 23:31N 54°58' E 010°59'917.9
2018-Jun-16 23:01N 55°07' E 011°02'917.0
2018-Jun-16 22:30N 55°15' E 011°05'918.5
2018-Jun-16 22:01N 55°24' E 010°60'6614.1
2018-Jun-16 17:20N 56°12' E 012°20'619.4
2018-Jun-16 17:00N 56°09' E 012°29'1019.2
2018-Jun-16 16:30N 56°02' E 012°40'918.1
2018-Jun-16 16:00N 55°53' E 012°44'815.6
2018-Jun-16 15:30N 55°45' E 012°41'3 6.4
2018-Jun-16 15:00N 55°43' E 012°37'0 0.1
2018-Jun-16 14:30N 55°43' E 012°37'0 0.0
2018-Jun-16 13:58N 55°43' E 012°37'0 0.0
2018-Jun-16 13:30N 55°43' E 012°37'0 0.0
2018-Jun-16 13:00N 55°43' E 012°37'0 0.0
2018-Jun-16 12:29N 55°43' E 012°37'0 0.0
2018-Jun-16 11:56N 55°43' E 012°37'0 0.0
2018-Jun-16 11:30N 55°43' E 012°37'0 0.0
2018-Jun-16 10:58N 55°43' E 012°37'0 0.0
2018-Jun-16 10:30N 55°43' E 012°37'0 0.0
2018-Jun-16 10:00N 55°43' E 012°37'0 0.0
2018-Jun-16 09:31N 55°43' E 012°37'0 0.0
2018-Jun-16 08:58N 55°43' E 012°37'0 0.0
2018-Jun-16 08:28N 55°43' E 012°37'0 0.0
2018-Jun-16 07:58N 55°43' E 012°37'0 0.0
2018-Jun-16 07:30N 55°43' E 012°37'0 0.0
2018-Jun-16 06:59N 55°43' E 012°37'0 0.0
2018-Jun-16 06:28N 55°43' E 012°37'0 0.0
2018-Jun-16 06:00N 55°43' E 012°37'0 0.0
2018-Jun-16 05:29N 55°43' E 012°37'0 0.0
2018-Jun-16 04:59N 55°43' E 012°37'0 0.0
2018-Jun-16 04:29N 55°43' E 012°37'0 0.0
2018-Jun-16 03:58N 55°43' E 012°37'1 1.5
2018-Jun-16 03:30N 55°43' E 012°38'510.3
2018-Jun-16 03:00N 55°48' E 012°42'612.1
2018-Jun-16 02:30N 55°54' E 012°39'714.6
2018-Jun-16 02:00N 56°01' E 012°40'713.3
2018-Jun-16 01:31N 56°06' E 012°33'815.3
2018-Jun-16 01:00N 56°10' E 012°21'6812.1
2018-Jun-15 19:21N 55°18' E 011°03'617.5
2018-Jun-15 19:00N 55°12' E 011°06'917.5
2018-Jun-15 18:30N 55°04' E 011°02'817.0
2018-Jun-15 18:01N 54°56' E 010°57'816.0
2018-Jun-15 17:31N 54°48' E 010°52'815.1
2018-Jun-15 17:01N 54°41' E 010°57'917.9
2018-Jun-15 16:31N 54°37' E 011°10'918.1
2018-Jun-15 16:01N 54°33' E 011°24'918.5
2018-Jun-15 15:31N 54°29' E 011°38'918.4
2018-Jun-15 15:01N 54°26' E 011°53'918.2
2018-Jun-15 14:30N 54°26' E 012°09'7217.6
2018-Jun-15 10:26N 55°03' E 013°55'1018.8
2018-Jun-15 09:53N 55°09' E 014°11'820.1
2018-Jun-15 09:31N 55°15' E 014°19'1019.9
2018-Jun-15 09:00N 55°23' E 014°30'1019.9
2018-Jun-15 08:31N 55°29' E 014°44'1120.3
2018-Jun-15 07:57N 55°34' E 015°01'1120.2
2018-Jun-15 07:24N 55°39' E 015°18'17818.3
2018-Jun-14 21:42N 58°17' E 017°47'419.7
2018-Jun-14 21:30N 58°21' E 017°48'1019.5
2018-Jun-14 21:01N 58°31' E 017°50'1019.1
2018-Jun-14 20:30N 58°40' E 017°53'611.5
2018-Jun-14 20:01N 58°46' E 017°55'917.5
2018-Jun-14 19:30N 58°54' E 018°00'1 2.4
2018-Jun-14 19:00N 58°55' E 017°58'0 0.0
2018-Jun-14 18:29N 58°55' E 017°58'0 0.0
2018-Jun-14 17:59N 58°55' E 017°58'0 0.0
2018-Jun-14 17:29N 58°55' E 017°58'0 0.0
2018-Jun-14 16:59N 58°55' E 017°58'0 0.0
2018-Jun-14 16:29N 58°55' E 017°58'0 0.0
2018-Jun-14 15:58N 58°55' E 017°58'0 0.0
2018-Jun-14 15:28N 58°55' E 017°58'0 0.0
2018-Jun-14 14:58N 58°55' E 017°58'0 0.0
2018-Jun-14 14:30N 58°55' E 017°58'0 0.0
2018-Jun-14 14:00N 58°55' E 017°58'0 0.0
2018-Jun-14 13:30N 58°55' E 017°58'0 0.0
2018-Jun-14 13:00N 58°55' E 017°58'0 0.0
2018-Jun-14 12:30N 58°55' E 017°58'0 0.0
2018-Jun-14 12:00N 58°55' E 017°58'0 0.0
2018-Jun-14 11:30N 58°55' E 017°58'0 0.0
2018-Jun-14 11:00N 58°55' E 017°58'0 0.0
2018-Jun-14 10:30N 58°55' E 017°58'0 0.0
2018-Jun-14 10:00N 58°55' E 017°58'0 0.0
2018-Jun-14 09:30N 58°55' E 017°58'0 0.0
2018-Jun-14 09:00N 58°55' E 017°58'0 0.0
2018-Jun-14 08:30N 58°55' E 017°58'0 0.0
2018-Jun-14 08:00N 58°55' E 017°58'0 0.0
2018-Jun-14 07:31N 58°55' E 017°58'0 0.0
2018-Jun-14 06:58N 58°55' E 017°58'0 0.0
2018-Jun-14 06:27N 58°55' E 017°58'0 0.0
2018-Jun-14 05:59N 58°55' E 017°58'0 0.0
2018-Jun-14 05:29N 58°55' E 017°58'0 0.0
2018-Jun-14 04:59N 58°55' E 017°58'0 0.0
2018-Jun-14 04:29N 58°55' E 017°58'0 0.1
2018-Jun-14 04:00N 58°55' E 017°58'3 6.9
2018-Jun-14 03:30N 58°52' E 018°03'815.1
2018-Jun-14 03:00N 58°45' E 018°09'816.2
2018-Jun-14 02:30N 58°45' E 018°25'816.2
2018-Jun-14 02:00N 58°47' E 018°40'1915.6
2018-Jun-14 00:48N 58°53' E 019°14'516.5
2018-Jun-14 00:28N 58°55' E 019°24'816.4
2018-Jun-13 23:58N 58°59' E 019°39'1016.0
2018-Jun-13 23:19N 59°03' E 019°57'616.6
2018-Jun-13 22:58N 59°05' E 020°07'816.4
2018-Jun-13 22:29N 59°08' E 020°21'916.3
2018-Jun-13 21:56N 59°12' E 020°37'716.6
2018-Jun-13 21:30N 59°15' E 020°50'817.1
2018-Jun-13 21:00N 59°18' E 021°06'917.3
2018-Jun-13 20:30N 59°20' E 021°22'917.1
2018-Jun-13 20:00N 59°22' E 021°38'917.2
2018-Jun-13 19:30N 59°24' E 021°55'816.9
2018-Jun-13 19:00N 59°26' E 022°11'1116.7
2018-Jun-13 18:22N 59°31' E 022°29'616.6
2018-Jun-13 18:00N 59°33' E 022°40'816.3
2018-Jun-13 17:30N 59°35' E 022°56'1019.5
2018-Jun-13 17:00N 59°37' E 023°15'1020.0
2018-Jun-13 16:30N 59°39' E 023°34'1020.1
2018-Jun-13 16:00N 59°42' E 023°53'1020.1
2018-Jun-13 15:30N 59°46' E 024°12'1019.7
2018-Jun-13 15:00N 59°50' E 024°30'1020.0
2018-Jun-13 14:30N 59°56' E 024°45'714.7
2018-Jun-13 14:00N 60°02' E 024°55'713.6
2018-Jun-13 13:30N 60°08' E 024°54'1 1.4
2018-Jun-13 12:59N 60°09' E 024°55'0 0.0
2018-Jun-13 12:30N 60°09' E 024°55'0 0.0
2018-Jun-13 11:59N 60°09' E 024°55'0 0.0
2018-Jun-13 11:29N 60°09' E 024°55'0 0.0
2018-Jun-13 10:59N 60°09' E 024°55'0 0.0
2018-Jun-13 10:29N 60°09' E 024°55'0 0.0
2018-Jun-13 09:58N 60°09' E 024°55'0 0.0
2018-Jun-13 09:28N 60°09' E 024°55'0 0.0
2018-Jun-13 09:00N 60°09' E 024°55'0 0.0
2018-Jun-13 08:30N 60°09' E 024°55'0 0.0
2018-Jun-13 08:00N 60°09' E 024°55'0 0.0
2018-Jun-13 07:30N 60°09' E 024°55'0 0.0
2018-Jun-13 07:00N 60°09' E 024°55'0 0.0
2018-Jun-13 06:29N 60°09' E 024°55'0 0.0
2018-Jun-13 06:00N 60°09' E 024°55'0 0.0
2018-Jun-13 05:25N 60°09' E 024°55'0 0.0
2018-Jun-13 05:00N 60°09' E 024°55'0 0.0
2018-Jun-13 04:30N 60°09' E 024°55'0 0.0
2018-Jun-13 03:58N 60°09' E 024°55'0 0.1
2018-Jun-13 03:30N 60°09' E 024°55'3 5.2
2018-Jun-13 03:00N 60°07' E 024°54'713.4
2018-Jun-13 02:30N 59°60' E 024°57'612.6
2018-Jun-13 02:00N 59°57' E 025°09'816.0
2018-Jun-13 01:30N 59°55' E 025°24'815.8
2018-Jun-13 01:00N 59°55' E 025°40'816.1
2018-Jun-13 00:30N 59°57' E 025°55'917.1
2018-Jun-12 23:58N 59°59' E 026°13'716.1
2018-Jun-12 23:31N 60°01' E 026°27'918.4
2018-Jun-12 23:00N 60°01' E 026°46'1019.7
2018-Jun-12 22:30N 59°60' E 027°05'1020.4
2018-Jun-12 22:00N 60°06' E 027°22'1120.8
2018-Jun-12 21:30N 60°11' E 027°40'1019.6
2018-Jun-12 21:00N 60°11' E 027°60'1019.9
2018-Jun-12 20:30N 60°07' E 028°19'1019.1
2018-Jun-12 20:00N 60°03' E 028°36'919.0
2018-Jun-12 19:30N 60°03' E 028°55'1019.8
2018-Jun-12 19:00N 60°02' E 029°15'1612.8
2018-Jun-12 17:46N 59°59' E 029°46'3 9.5
2018-Jun-12 17:27N 59°57' E 029°51'510.6
2018-Jun-12 16:57N 59°55' E 030°01'4 9.6
2018-Jun-12 16:30N 59°57' E 030°08'1 0.7
2018-Jun-12 14:41N 59°57' E 030°11'0 0.0
2018-Jun-12 14:21N 59°57' E 030°11'0 0.0
2018-Jun-12 13:55N 59°57' E 030°11'0 0.0
2018-Jun-12 13:30N 59°57' E 030°11'0 0.0
2018-Jun-12 10:04N 59°57' E 030°11'0 0.0
2018-Jun-12 09:48N 59°57' E 030°11'0 0.0
2018-Jun-12 09:24N 59°57' E 030°11'0 0.0
2018-Jun-12 08:10N 59°57' E 030°11'  

Dump ship's entire track history